Time;durP1;ratioP1;P1;durP2;ratioP2;P2;SDS_P1;SDS_P2;PMS_P1;PMS_P2;Temp;Humidity;BMP_temperature;BMP_pressure;BME280_temperature;BME280_humidity;BME280_pressure;Samples;Min_cycle;Max_cycle;Signal;HPM_P1;HPM_P2
2021/09/12 00:02:03;;;;;;;62.38;34.42;;;17.50;99.90;;;;;;6248110;22;20015;-91
2021/09/12 00:04:32;;;;;;;68.00;36.42;;;17.50;99.90;;;;;;6222833;22;20030;-91
2021/09/12 00:07:09;;;;;;;65.97;35.08;;;17.50;99.90;;;;;;6274519;22;20017;-91
2021/09/12 00:09:37;;;;;;;70.25;35.95;;;17.50;99.90;;;;;;6223113;22;20072;-93
2021/09/12 00:12:04;;;;;;;69.72;36.38;;;17.50;99.90;;;;;;6248307;22;20015;-91
2021/09/12 00:14:30;;;;;;;76.60;36.53;;;17.50;99.90;;;;;;6276196;22;20015;-91
2021/09/12 00:16:59;;;;;;;79.35;37.88;;;17.50;99.90;;;;;;6275651;22;20025;-89
2021/09/12 00:19:48;;;;;;;70.07;36.17;;;17.50;99.90;;;;;;6271577;22;20050;-91
2021/09/12 00:22:20;;;;;;;71.80;36.30;;;17.50;99.90;;;;;;6222365;22;20039;-91
2021/09/12 00:25:31;;;;;;;69.38;35.83;;;17.40;99.90;;;;;;6275622;22;20011;-90
2021/09/12 00:28:09;;;;;;;73.63;37.42;;;17.50;99.90;;;;;;6274603;22;20011;-91
2021/09/12 00:30:40;;;;;;;69.20;35.47;;;17.40;99.90;;;;;;6223039;22;20521;-95
2021/09/12 00:33:12;;;;;;;71.35;35.70;;;17.50;99.90;;;;;;6274060;22;20011;-91
2021/09/12 00:35:38;;;;;;;76.93;37.22;;;17.40;99.90;;;;;;6226464;22;20019;-91
2021/09/12 00:38:03;;;;;;;74.13;36.67;;;17.40;99.90;;;;;;6277911;22;20019;-91
2021/09/12 00:40:35;;;;;;;78.10;36.47;;;17.40;99.90;;;;;;6224490;22;20017;-91
2021/09/12 00:43:01;;;;;;;77.78;36.53;;;17.40;99.90;;;;;;6274061;22;20344;-91
2021/09/12 00:49:29;;;;;;;81.30;38.25;;;17.40;99.90;;;;;;6145758;23;20068;-94
2021/09/12 00:52:19;;;;;;;;;;;;;;;;;;;;;
2021/09/12 00:54:49;;;;;;;81.38;38.05;;;17.40;99.90;;;;;;6238583;23;20008;-93
2021/09/12 00:57:35;;;;;;;;;;;;;;;;;;;;;
2021/09/12 01:01:30;;;;;;;;;;;;;;;;;;;;;
2021/09/12 01:04:20;;;;;;;76.15;37.72;;;17.30;99.90;;;;;;6176870;23;20368;-91
2021/09/12 01:06:55;;;;;;;78.20;37.08;;;17.30;99.90;;;;;;6180906;23;20454;-91
2021/09/12 01:09:21;;;;;;;76.00;37.20;;;17.30;99.90;;;;;;6206937;22;20050;-89
2021/09/12 01:11:47;;;;;;;80.38;37.75;;;17.20;99.90;;;;;;6224743;22;20022;-90
2021/09/12 01:14:22;;;;;;;71.93;36.17;;;17.20;99.90;;;;;;6223785;22;20019;-91
2021/09/12 01:16:47;;;;;;;87.88;39.22;;;17.10;99.90;;;;;;6224262;22;20409;-92
2021/09/12 01:19:13;;;;;;;79.40;39.80;;;17.10;99.90;;;;;;6275471;22;20472;-91
2021/09/12 01:21:41;;;;;;;91.18;40.40;;;17.10;99.90;;;;;;6224365;22;20401;-90
2021/09/12 01:24:10;;;;;;;90.13;39.80;;;17.10;99.90;;;;;;6275955;22;20348;-90
2021/09/12 01:26:36;;;;;;;89.50;38.80;;;17.00;99.90;;;;;;6223352;22;20039;-90
2021/09/12 01:29:02;;;;;;;89.13;39.83;;;17.00;99.90;;;;;;6248533;22;20007;-91
2021/09/12 01:31:30;;;;;;;94.45;40.30;;;17.00;99.90;;;;;;6275028;22;20387;-90
2021/09/12 01:33:58;;;;;;;101.72;42.13;;;16.90;99.90;;;;;;6275536;22;20399;-91
2021/09/12 01:36:24;;;;;;;102.95;41.78;;;16.90;99.90;;;;;;6249884;22;20011;-90
2021/09/12 01:38:50;;;;;;;112.05;43.92;;;16.90;99.90;;;;;;6276267;22;20007;-90
2021/09/12 01:41:15;;;;;;;121.00;44.78;;;16.90;99.90;;;;;;6249903;22;20498;-90
2021/09/12 01:43:49;;;;;;;126.32;45.70;;;16.80;99.90;;;;;;6224272;22;20026;-91
2021/09/12 01:46:16;;;;;;;118.10;44.38;;;16.90;99.90;;;;;;6275699;22;20023;-90
2021/09/12 01:48:42;;;;;;;108.22;44.20;;;16.80;99.90;;;;;;6273237;22;20057;-91
2021/09/12 01:51:08;;;;;;;108.70;43.45;;;16.90;99.90;;;;;;6274999;22;20022;-91
2021/09/12 01:53:34;;;;;;;107.93;43.60;;;16.90;99.90;;;;;;6276470;22;20011;-90
2021/09/12 01:56:01;;;;;;;104.10;42.20;;;16.80;99.90;;;;;;6275403;22;20051;-90
2021/09/12 01:58:27;;;;;;;97.35;41.25;;;16.80;99.90;;;;;;6250990;22;20086;-91
2021/09/12 02:00:53;;;;;;;103.00;41.80;;;16.80;99.90;;;;;;6274424;22;20015;-91
2021/09/12 02:03:19;;;;;;;102.32;42.60;;;16.80;99.90;;;;;;6274690;22;20041;-91
2021/09/12 02:05:45;;;;;;;105.93;42.08;;;16.70;99.90;;;;;;6250340;22;20011;-91
2021/09/12 02:08:11;;;;;;;100.07;41.42;;;16.80;99.90;;;;;;6275938;22;20448;-91
2021/09/12 02:10:36;;;;;;;97.15;41.13;;;16.70;99.90;;;;;;6250750;22;20015;-90
2021/09/12 02:13:02;;;;;;;93.95;40.10;;;16.70;99.90;;;;;;6248095;22;20364;-91
2021/09/12 02:15:28;;;;;;;104.20;41.25;;;16.70;99.90;;;;;;6273268;22;20582;-90
2021/09/12 02:17:53;;;;;;;95.03;39.05;;;16.70;99.90;;;;;;6274897;22;20015;-90
2021/09/12 02:20:19;;;;;;;85.70;38.22;;;16.70;99.90;;;;;;6221447;22;20082;-93
2021/09/12 02:22:45;;;;;;;94.20;38.55;;;16.60;99.90;;;;;;6223772;22;20403;-91
2021/09/12 02:25:11;;;;;;;87.65;38.33;;;16.60;99.90;;;;;;6274189;22;20045;-91
2021/09/12 02:27:37;;;;;;;92.80;37.75;;;16.60;99.90;;;;;;6273650;22;20018;-91
2021/09/12 02:30:06;;;;;;;90.22;38.45;;;16.60;99.90;;;;;;6273703;22;20348;-90
2021/09/12 02:32:32;;;;;;;83.00;37.63;;;16.60;99.90;;;;;;6249208;22;20019;-92
2021/09/12 02:34:59;;;;;;;79.22;36.30;;;16.60;99.90;;;;;;6275123;22;20026;-92
2021/09/12 02:37:25;;;;;;;78.18;35.83;;;16.60;99.90;;;;;;6274848;22;20046;-92
2021/09/12 02:39:50;;;;;;;90.03;36.40;;;16.60;99.90;;;;;;6273618;22;20045;-91
2021/09/12 02:42:16;;;;;;;81.22;35.45;;;16.50;99.90;;;;;;6272823;22;20348;-90
2021/09/12 02:44:42;;;;;;;76.20;34.00;;;16.50;99.90;;;;;;6272875;22;20016;-90
2021/09/12 02:47:08;;;;;;;76.55;34.00;;;16.50;99.90;;;;;;6223354;22;20451;-90
2021/09/12 02:49:41;;;;;;;76.35;34.42;;;16.50;99.90;;;;;;6221969;22;20464;-90
2021/09/12 02:52:07;;;;;;;76.20;33.92;;;16.50;99.90;;;;;;6274981;22;20101;-91
2021/09/12 02:54:33;;;;;;;74.20;34.30;;;16.40;99.90;;;;;;6224755;22;20345;-90
2021/09/12 02:56:59;;;;;;;75.13;33.90;;;16.40;99.90;;;;;;6275016;22;20011;-91
2021/09/12 02:59:24;;;;;;;72.70;33.55;;;16.40;99.90;;;;;;6274272;22;20058;-91
2021/09/12 03:01:50;;;;;;;76.65;34.42;;;16.40;99.90;;;;;;6223504;22;20050;-92
2021/09/12 03:04:16;;;;;;;90.07;36.55;;;16.40;99.90;;;;;;6273733;22;20019;-91
2021/09/12 03:06:42;;;;;;;93.60;38.67;;;16.40;99.90;;;;;;6249919;22;20535;-91
2021/09/12 03:09:07;;;;;;;92.60;38.08;;;16.30;99.90;;;;;;6223104;22;20022;-91
2021/09/12 03:11:33;;;;;;;90.20;37.30;;;16.30;99.90;;;;;;6224563;22;20015;-91
2021/09/12 03:13:59;;;;;;;96.45;39.10;;;16.30;99.90;;;;;;6275441;22;20007;-91
2021/09/12 03:16:26;;;;;;;102.97;39.88;;;16.30;99.90;;;;;;6275437;22;20346;-91
2021/09/12 03:18:51;;;;;;;97.57;40.15;;;16.30;99.90;;;;;;6248121;22;20397;-92
2021/09/12 03:21:19;;;;;;;97.35;39.05;;;16.20;99.90;;;;;;6249475;22;20007;-91
2021/09/12 03:23:45;;;;;;;96.03;38.80;;;16.20;99.90;;;;;;6274773;22;20350;-91
2021/09/12 03:26:11;;;;;;;99.07;38.90;;;16.20;99.90;;;;;;6274859;22;20015;-91
2021/09/12 03:28:37;;;;;;;101.45;39.75;;;16.20;99.90;;;;;;6275427;22;20061;-90
2021/09/12 03:31:03;;;;;;;91.65;39.22;;;16.20;99.90;;;;;;6273632;22;20042;-90
2021/09/12 03:33:29;;;;;;;91.28;38.10;;;16.20;99.90;;;;;;6249948;22;20015;-90
2021/09/12 03:35:55;;;;;;;82.43;36.95;;;16.20;99.90;;;;;;6223659;22;20045;-91
2021/09/12 03:38:20;;;;;;;78.13;33.13;;;16.20;99.90;;;;;;6275069;22;20015;-91
2021/09/12 03:40:46;;;;;;;72.65;32.72;;;16.10;99.90;;;;;;6222973;22;20022;-90
2021/09/12 03:43:12;;;;;;;81.72;34.38;;;16.20;99.90;;;;;;6248393;22;20023;-90
2021/09/12 03:45:38;;;;;;;67.65;30.48;;;16.10;99.90;;;;;;6223098;22;20050;-90
2021/09/12 03:48:04;;;;;;;73.90;32.47;;;16.10;99.90;;;;;;6273511;22;20019;-90
2021/09/12 03:50:30;;;;;;;62.38;29.20;;;16.10;99.90;;;;;;6249518;22;20011;-89
2021/09/12 03:52:57;;;;;;;65.65;30.13;;;16.10;99.90;;;;;;6227052;22;20019;-90
2021/09/12 03:55:23;;;;;;;59.17;28.63;;;16.10;99.90;;;;;;6225633;22;20038;-90
2021/09/12 03:57:49;;;;;;;64.22;29.13;;;16.10;99.90;;;;;;6275949;22;20448;-89
2021/09/12 04:00:15;;;;;;;61.55;29.00;;;16.10;99.90;;;;;;6275210;22;20093;-91
2021/09/12 04:02:45;;;;;;;62.17;29.20;;;16.10;99.90;;;;;;6225247;22;20011;-90
2021/09/12 04:05:11;;;;;;;65.93;29.92;;;16.10;99.90;;;;;;6275545;22;20015;-91
2021/09/12 04:07:37;;;;;;;66.07;29.42;;;16.00;99.90;;;;;;6246929;22;20011;-90
2021/09/12 04:10:06;;;;;;;76.00;33.17;;;16.00;99.90;;;;;;6250107;22;20017;-91
2021/09/12 04:12:32;;;;;;;69.55;31.55;;;16.00;99.90;;;;;;6275802;22;20011;-90
2021/09/12 04:15:01;;;;;;;67.70;31.58;;;16.00;99.90;;;;;;6277114;22;20046;-90
2021/09/12 04:17:27;;;;;;;69.55;31.08;;;16.00;99.90;;;;;;6275999;22;20015;-91
2021/09/12 04:19:53;;;;;;;69.97;31.05;;;16.00;99.90;;;;;;6272868;22;20026;-91
2021/09/12 04:22:18;;;;;;;71.07;32.15;;;16.00;99.90;;;;;;6222844;22;20011;-91
2021/09/12 04:24:52;;;;;;;71.78;31.52;;;16.00;99.90;;;;;;6276543;22;20019;-90
2021/09/12 04:27:18;;;;;;;63.42;29.98;;;15.90;99.90;;;;;;6276517;22;20011;-90
2021/09/12 04:29:44;;;;;;;71.30;29.70;;;15.90;99.90;;;;;;6276738;22;20018;-89
2021/09/12 04:32:09;;;;;;;61.33;29.67;;;15.90;99.90;;;;;;6274473;22;20015;-91
2021/09/12 04:34:35;;;;;;;61.83;29.58;;;15.90;99.90;;;;;;6276634;22;20477;-90
2021/09/12 04:37:01;;;;;;;62.03;28.23;;;15.90;99.90;;;;;;6276461;22;20038;-91
2021/09/12 04:39:27;;;;;;;65.95;28.77;;;15.90;99.90;;;;;;6276134;22;20048;-91
2021/09/12 04:41:53;;;;;;;63.05;29.13;;;15.80;99.90;;;;;;6225182;22;20058;-89
2021/09/12 04:44:18;;;;;;;61.42;27.83;;;15.80;99.90;;;;;;6249507;22;20019;-92
2021/09/12 04:46:47;;;;;;;62.28;27.70;;;15.80;99.90;;;;;;6275971;22;20011;-91
2021/09/12 04:49:13;;;;;;;56.97;27.05;;;15.80;99.90;;;;;;6222622;22;20042;-91
2021/09/12 04:51:39;;;;;;;57.45;26.45;;;15.80;99.90;;;;;;6250585;22;20011;-90
2021/09/12 04:54:04;;;;;;;60.67;28.48;;;15.80;99.90;;;;;;6225769;22;20011;-91
2021/09/12 04:56:30;;;;;;;56.10;26.83;;;15.80;99.90;;;;;;6225896;22;20011;-91
2021/09/12 04:58:56;;;;;;;61.60;26.70;;;15.80;99.90;;;;;;6249192;22;20015;-90
2021/09/12 05:01:21;;;;;;;53.05;25.48;;;15.80;99.90;;;;;;6225811;22;20137;-90
2021/09/12 05:03:52;;;;;;;55.92;25.80;;;15.80;99.90;;;;;;6306844;22;20041;-93
2021/09/12 05:06:17;;;;;;;57.38;24.52;;;15.80;99.90;;;;;;6306589;22;20078;-93
2021/09/12 05:08:43;;;;;;;51.33;25.55;;;15.80;99.90;;;;;;6281230;22;20007;-93
2021/09/12 05:11:09;;;;;;;54.30;23.30;;;15.80;99.90;;;;;;6257849;22;20500;-90
2021/09/12 05:13:38;;;;;;;52.38;24.40;;;15.80;99.90;;;;;;6224995;22;20017;-90
2021/09/12 05:16:04;;;;;;;45.88;23.63;;;15.80;99.90;;;;;;6275723;22;20031;-90
2021/09/12 05:18:30;;;;;;;55.67;23.15;;;15.80;99.90;;;;;;6276494;22;20381;-90
2021/09/12 05:20:56;;;;;;;52.95;22.77;;;15.80;99.90;;;;;;6273795;22;20011;-91
2021/09/12 05:23:22;;;;;;;52.67;23.30;;;15.80;99.90;;;;;;6273687;22;20099;-91
2021/09/12 05:25:50;;;;;;;46.65;22.73;;;15.80;99.90;;;;;;6248659;22;20018;-90
2021/09/12 05:28:16;;;;;;;49.30;20.98;;;15.90;99.90;;;;;;6274798;22;20325;-90
2021/09/12 05:30:42;;;;;;;45.38;22.40;;;15.90;99.90;;;;;;6274309;22;20011;-91
2021/09/12 05:33:08;;;;;;;45.28;20.95;;;15.90;99.90;;;;;;6275336;22;20061;-90
2021/09/12 05:35:34;;;;;;;43.53;20.90;;;15.90;99.90;;;;;;6250752;22;20077;-91
2021/09/12 05:38:00;;;;;;;44.80;20.80;;;15.90;99.90;;;;;;6300441;22;20011;-91
2021/09/12 05:40:25;;;;;;;42.75;20.63;;;15.90;99.90;;;;;;6250898;22;20018;-90
2021/09/12 05:42:57;;;;;;;38.22;19.02;;;16.00;99.90;;;;;;6224210;22;20015;-90
2021/09/12 05:45:23;;;;;;;40.63;18.92;;;16.00;99.90;;;;;;6224521;22;20011;-91
2021/09/12 05:47:49;;;;;;;39.20;17.80;;;16.00;99.90;;;;;;6275765;22;20018;-91
2021/09/12 05:50:15;;;;;;;41.88;20.15;;;16.00;99.90;;;;;;6275251;22;20007;-91
2021/09/12 05:52:40;;;;;;;43.58;19.52;;;16.00;99.90;;;;;;6275771;22;20014;-92
2021/09/12 05:55:07;;;;;;;41.55;18.38;;;16.10;99.90;;;;;;6276112;22;20022;-91
2021/09/12 05:57:32;;;;;;;39.22;17.42;;;16.10;99.90;;;;;;6250331;22;20076;-92
2021/09/12 05:59:59;;;;;;;44.88;18.35;;;16.10;99.90;;;;;;6249393;22;20019;-90
2021/09/12 06:02:25;;;;;;;39.40;18.55;;;16.10;99.90;;;;;;6275189;22;20058;-91
2021/09/12 06:04:53;;;;;;;45.38;19.13;;;16.10;99.90;;;;;;6275597;22;20030;-92
2021/09/12 06:07:19;;;;;;;44.03;18.20;;;16.10;99.90;;;;;;6249977;22;20015;-91
2021/09/12 06:09:45;;;;;;;42.50;18.65;;;16.10;99.90;;;;;;6275718;22;20323;-90
2021/09/12 06:12:10;;;;;;;37.67;17.95;;;16.10;99.90;;;;;;6275777;22;20047;-91
2021/09/12 06:14:36;;;;;;;45.35;18.60;;;16.20;99.90;;;;;;6250601;22;20015;-91
2021/09/12 06:17:05;;;;;;;42.10;17.00;;;16.10;99.90;;;;;;6225195;22;20436;-90
2021/09/12 06:19:36;;;;;;;40.83;18.17;;;16.20;99.90;;;;;;6224907;22;20325;-90
2021/09/12 06:22:06;;;;;;;38.63;17.85;;;16.20;99.90;;;;;;6274197;22;20031;-91
2021/09/12 06:24:35;;;;;;;44.75;18.02;;;16.10;99.90;;;;;;6249949;22;20018;-90
2021/09/12 06:27:01;;;;;;;39.15;16.85;;;16.20;99.90;;;;;;6225064;22;20220;-90
2021/09/12 06:29:27;;;;;;;38.42;16.65;;;16.20;99.90;;;;;;6248597;22;20022;-92
2021/09/12 06:31:53;;;;;;;38.75;17.75;;;16.20;99.90;;;;;;6272956;22;20022;-93
2021/09/12 06:34:19;;;;;;;46.70;17.58;;;16.20;99.90;;;;;;6249587;22;20011;-94
2021/09/12 06:36:45;;;;;;;39.95;17.05;;;16.20;99.90;;;;;;6276180;22;20482;-94
2021/09/12 06:39:22;;;;;;;41.03;17.40;;;16.20;99.90;;;;;;6248153;22;20435;-92
2021/09/12 06:41:59;;;;;;;39.22;17.73;;;16.20;99.90;;;;;;6275034;22;20352;-92
2021/09/12 06:44:36;;;;;;;43.17;16.77;;;16.20;99.90;;;;;;6228813;22;20100;-91
2021/09/12 06:47:05;;;;;;;35.38;17.75;;;16.30;99.90;;;;;;6276015;22;20062;-92
2021/09/12 06:49:33;;;;;;;35.10;16.60;;;16.30;99.90;;;;;;6249222;22;20084;-92
2021/09/12 06:52:00;;;;;;;34.78;16.95;;;16.30;99.90;;;;;;6245795;22;20023;-92
2021/09/12 06:54:27;;;;;;;35.75;16.73;;;16.30;99.90;;;;;;6222116;22;20068;-94
2021/09/12 06:56:53;;;;;;;44.67;17.88;;;16.30;99.90;;;;;;6249577;22;20015;-92
2021/09/12 06:59:19;;;;;;;44.28;17.40;;;16.30;99.90;;;;;;6278307;22;20015;-95
2021/09/12 07:01:45;;;;;;;42.00;18.17;;;16.30;99.90;;;;;;6248367;22;20019;-91
2021/09/12 07:04:16;;;;;;;42.90;18.30;;;16.40;99.90;;;;;;6280877;22;20067;-94
2021/09/12 07:07:02;;;;;;;39.13;17.92;;;16.40;99.90;;;;;;6283463;22;20019;-93
2021/09/12 07:09:39;;;;;;;42.23;17.13;;;16.40;99.90;;;;;;6284067;22;20088;-94
2021/09/12 07:12:18;;;;;;;;;;;;;;;;;;;;;
2021/09/12 07:14:54;;;;;;;39.80;18.42;;;16.40;99.90;;;;;;6307113;22;20296;-94
2021/09/12 07:17:23;;;;;;;37.88;17.10;;;16.40;99.90;;;;;;6282336;22;20015;-94
2021/09/12 07:19:51;;;;;;;38.10;17.38;;;16.50;99.90;;;;;;6282763;22;20029;-95
2021/09/12 07:22:17;;;;;;;40.78;18.80;;;16.50;99.90;;;;;;6253786;22;20016;-92
2021/09/12 07:24:43;;;;;;;41.70;18.50;;;16.50;99.90;;;;;;6253749;22;20092;-92
2021/09/12 07:27:09;;;;;;;39.70;17.50;;;16.50;99.90;;;;;;6254206;22;20019;-94
2021/09/12 07:29:56;;;;;;;41.58;18.25;;;16.50;99.90;;;;;;6279567;22;20015;-93
2021/09/12 07:32:43;;;;;;;44.80;18.75;;;16.60;99.90;;;;;;6251119;22;20015;-93
2021/09/12 07:35:43;;;;;;;40.35;19.02;;;16.50;99.90;;;;;;6233802;22;20074;-93
2021/09/12 07:38:24;;;;;;;40.80;19.23;;;16.60;99.90;;;;;;6257096;22;20022;-92
2021/09/12 07:41:19;;;;;;;;;;;16.60;99.90;;;;;;6278419;22;20058;-93
2021/09/12 07:47:47;;;;;;;42.60;20.55;;;16.60;99.90;;;;;;6273423;22;20027;-92
2021/09/12 07:50:44;;;;;;;38.22;21.25;;;16.70;99.90;;;;;;6243028;22;20049;-94
2021/09/12 10:44:34;;;;;;;71.78;31.67;;;17.70;99.90;;;;;;6211693;23;20030;-86
2021/09/12 10:47:27;;;;;;;65.88;32.55;;;17.80;99.90;;;;;;6188646;23;20020;-85
2021/09/12 10:49:54;;;;;;;62.17;31.80;;;17.80;99.90;;;;;;6187835;23;20020;-84
2021/09/12 10:52:46;;;;;;;71.72;32.95;;;17.70;99.90;;;;;;6187410;23;20012;-85
2021/09/12 10:55:12;;;;;;;65.97;32.83;;;17.70;99.90;;;;;;6189694;23;20012;-87
2021/09/12 10:57:38;;;;;;;70.75;32.38;;;17.70;99.90;;;;;;6185878;23;20061;-85
2021/09/12 11:00:47;;;;;;;62.70;31.92;;;17.80;99.90;;;;;;6185344;23;20043;-87
2021/09/12 11:03:17;;;;;;;60.72;31.48;;;17.90;99.90;;;;;;6163165;23;20066;-87
2021/09/12 11:05:47;;;;;;;59.35;30.25;;;17.90;99.90;;;;;;6186478;23;20066;-85
2021/09/12 11:08:44;;;;;;;60.90;31.27;;;18.00;99.90;;;;;;6237403;23;20615;-88
2021/09/12 11:11:10;;;;;;;57.15;29.08;;;18.10;99.90;;;;;;6187439;23;20012;-85
2021/09/12 11:14:26;;;;;;;60.92;30.90;;;18.20;99.90;;;;;;6186540;23;20023;-87
2021/09/12 11:17:24;;;;;;;52.75;28.48;;;18.30;99.90;;;;;;6148221;23;20025;-87
2021/09/12 11:19:53;;;;;;;54.25;29.00;;;18.40;99.90;;;;;;6214338;22;20012;-85
2021/09/12 11:22:19;;;;;;;45.58;25.50;;;18.50;99.90;;;;;;6305007;22;20326;-85
2021/09/12 11:24:45;;;;;;;45.97;26.23;;;18.50;99.90;;;;;;6305623;22;20076;-87
2021/09/12 11:27:11;;;;;;;50.13;26.92;;;18.60;99.90;;;;;;6306122;22;20014;-85
2021/09/12 11:29:44;;;;;;;46.03;26.08;;;18.60;99.90;;;;;;6304953;22;20065;-86
2021/09/12 11:33:01;;;;;;;45.40;26.90;;;18.70;99.90;;;;;;6281686;22;20072;-86
2021/09/12 11:39:21;;;;;;;54.72;26.42;;;18.90;99.90;;;;;;6232289;22;20460;-85
2021/09/12 11:41:51;;;;;;;50.28;26.27;;;18.90;99.90;;;;;;6306225;22;20015;-84
2021/09/12 11:44:28;;;;;;;44.70;26.17;;;19.00;99.90;;;;;;6305753;22;20007;-87
2021/09/12 11:46:56;;;;;;;43.03;25.35;;;19.00;99.90;;;;;;6303921;22;20443;-86
2021/09/12 11:53:34;;;;;;;50.45;26.85;;;19.20;99.90;;;;;;6216330;23;20542;-88
2021/09/12 11:56:39;;;;;;;43.58;25.92;;;19.30;99.90;;;;;;6206862;23;20013;-88
2021/09/12 13:25:07;;;;;;;16.13;9.40;;;18.90;99.90;;;;;;6364933;22;20063;-87
2021/09/12 13:28:03;;;;;;;18.65;9.90;;;18.90;99.90;;;;;;6336564;22;20083;-86
2021/09/12 13:30:31;;;;;;;16.10;10.65;;;19.00;99.90;;;;;;6278401;22;20017;-85
2021/09/12 13:33:09;;;;;;;12.57;10.23;;;19.10;99.90;;;;;;6252515;22;20015;-86
2021/09/12 13:35:38;;;;;;;20.05;11.18;;;19.30;99.90;;;;;;6252866;22;20025;-87
2021/09/12 13:38:14;;;;;;;14.30;8.93;;;19.50;99.90;;;;;;6230482;22;20111;-86
2021/09/12 13:40:42;;;;;;;14.63;7.97;;;19.70;99.90;;;;;;6275640;22;20093;-85
2021/09/12 13:43:11;;;;;;;9.80;7.35;;;19.80;99.90;;;;;;6253728;22;20068;-85
2021/09/12 13:45:37;;;;;;;5.82;4.05;;;19.90;99.90;;;;;;6252134;22;20015;-85
2021/09/12 13:48:04;;;;;;;6.28;3.00;;;20.00;99.90;;;;;;6277278;22;20388;-85
2021/09/12 13:50:33;;;;;;;7.05;3.55;;;20.00;99.90;;;;;;6248670;22;20355;-85
2021/09/12 13:52:59;;;;;;;7.80;3.20;;;20.10;99.90;;;;;;6279128;22;20011;-85
2021/09/12 13:55:25;;;;;;;5.32;2.58;;;20.10;99.90;;;;;;6330118;22;20722;-85
2021/09/12 13:57:51;;;;;;;5.97;2.75;;;20.20;99.50;;;;;;6250024;22;20096;-85
2021/09/12 14:00:17;;;;;;;4.35;2.10;;;20.20;99.50;;;;;;6328719;22;20044;-86
2021/09/12 14:06:32;;;;;;;1.85;1.02;;;20.40;99.10;;;;;;6234034;23;20050;-87
2021/09/12 14:47:19;;;;;;;2.03;1.20;;;20.40;94.80;;;;;;6331124;22;20021;-87
2021/09/12 15:34:35;;;;;;;2.70;1.40;;;19.70;95.90;;;;;;6299173;22;20018;-86
2021/09/12 19:04:39;;;;;;;8.70;3.35;;;15.60;99.90;;;;;;6304256;22;20098;-92
2021/09/12 19:14:45;;;;;;;6.97;2.30;;;15.40;99.90;;;;;;6254363;22;20090;-93
2021/09/12 19:22:02;;;;;;;9.85;2.85;;;15.30;99.90;;;;;;6147639;23;20013;-93
2021/09/12 19:28:57;;;;;;;;;;;;;;;;;;;;;
2021/09/12 19:31:47;;;;;;;8.35;2.58;;;15.20;99.90;;;;;;6207242;23;20017;-92
2021/09/12 19:34:56;;;;;;;;;;;;;;;;;;;;;
2021/09/12 19:37:35;;;;;;;4.55;2.30;;;15.10;99.90;;;;;;6196980;23;20493;-92
2021/09/12 19:40:24;;;;;;;14.18;2.80;;;15.10;99.90;;;;;;6154693;23;20020;-93
2021/09/12 19:42:56;;;;;;;9.15;2.70;;;15.10;99.90;;;;;;6176187;23;20091;-92
2021/09/12 19:49:18;;;;;;;9.27;3.00;;;15.00;99.90;;;;;;6157586;22;20024;-93
2021/09/12 19:52:39;;;;;;;12.88;2.95;;;15.00;99.90;;;;;;6229131;22;20015;-93
2021/09/12 19:59:00;;;;;;;;;;;;;;;;;;;;;
2021/09/12 20:02:48;;;;;;;;;;;;;;;;;;;;;
2021/09/12 21:34:08;;;;;;;;;;;;;;;;;;;;;
